LFSX

Luxeuil-Saint-Sauveur (BA 116) Air Base

Airport
ICAO code
LFSX
Summary
ICAO Region
EUR
ICAO Territory
Location

, Franche-Comte

Serving
Luxeuil
Elevation
913 ft
Coordinates
47° 46' 59" N , 6° 21' 51" E
Metar
Observation
LFSX 030200Z AUTO 07004KT 030V120 6000 NSC M01/M01 Q1015
Station
Luxeuil
Date/Time
2022-12-03 02:00:00
Wind direction
70°
Wind speed
04 kts
Lowest cloud amount
nil significant cloud
Temperature
-1°C
Dew point
-1°C
Humidity
100%
QNH
1015 hPa
Weather condition
n/a

Runways

Designator Length Width Surface Rops
4/22 2315 36 ASP No/No
11/29 2433 45 ASP No/No

Airport map

Aerial View

SKYbrary Partners:

Safety knowledge contributed by: